Flugplatz Morschenich (UL)

Hier findest Du alle Informationen zum Flugplatz Morschenich (UL).

Informationen für Piloten zum Flugplatz Morschenich

Hier findest Du alle relevanten Informationen, die Du als Pilot benötigst, um Morschenich anzufliegen.

Flugplatz: Morschenich ICAO-Code: UL Flugplatz
Frequenz Turm: 123,425 Mhz GAFOR Gebiet: 34
Frequenz Ground: 123,425 Mhz Mogas: nein
Platzrunde: S 950 ft Landegebühr: -
Platzhöhe: Sunrise: 04:20 Uhr UTC
Pisten: 07/25 - 320 m x 15 m, GRAS Sunset: 18:56 Uhr UTC

Flugwetter am Flugplatz Morschenich

Die METAR Information stammen aus EDLN (39.84 km entfernt).

METAR Code:
2020/08/13 06:50
EDLN 130650Z VRB02KT CAVOK 22/19 Q1012

Flugschulen am Flugplatz Morschenich

Am Flugplatz Morschenich gibt es leider keine Flugschule.

Benachbarte Flugplätze und Flugschulen

Es gibt 17 weitere Flugplätze in einem Umkreis von 50 km um den Flugplatz Morschenich.

Jetzt anmelden

Passwort vergessen

Umfrage Archiv

Wären Rettungsgeräte keine Pflicht mehr, würdet Ihr Euer UL trotzdem mit einem ausstatten?

Ja
83.5 %
Nein
16.5 %
Stimmen: 260 | Diskussion
Anzeige: Roland Aircraft
Statistik Alle Mitglieder

Aktuell sind 59 Besucher online, davon 3 Mitglieder und 56 Gäste.


Mitglieder online:
Mr. Lucky  madie73  Maraio 

Anzeige: VFR Sprechfunk Simulator


Anzeige: Pocket FMS